Bridgton, ME (04009)

11:15 PM EDT on July 24, 2016 (GMT -0400)
Moose Pond (Knights Hill) | | Change Station

Elev 419 ft 44.08 °N, 70.81 °W | Updated 64 days ago

Partly Cloudy
Partly Cloudy
61 °F
Feels Like 61 °F
N
2
Wind Variable Wind from NNW
Gusts mph

Today
High -- | Low -- °F
--% Chance of Precip.
Yesterday
High -- | Low -- °F
Precip. -- in
Pressure 30.01 in
Visibility 10.0 miles
Clouds Clear
Dew Point 57 °F
Humidity 88%
Rainfall in
Snow Depth Not available.
5:22 AM 8:15 PM
Waning Gibbous, 70% visible
METAR KLEW 250256Z AUTO 21003KT 10SM CLR 17/16 A2998 RMK AO2 SLP163 T01670156 51008
Pressure 30.01 in
Visibility 10.0 miles
Clouds Clear
Dew Point 57 °F
Humidity 88%
Rainfall in
Snow Depth Not available.
5:22 AM 8:15 PM
Waning Gibbous, 70% visible
METAR KLEW 250256Z AUTO 21003KT 10SM CLR 17/16 A2998 RMK AO2 SLP163 T01670156 51008

10-Day Weather Forecast

Almanac

Astronomy

Jul. 24, 2016 Rise Set
Actual Time
Civil Twilight
Nautical Twilight
Astronomical Twilight
Moon
Length of Visible Light
Length of Day
Tomorrow will be .
, % of the Moon is Illuminated

Today's Extremes

State Highs State Lows

Community

WunderPhotos

Upload Photos

1,927,253 photos uploaded!

WunderBlog® & News

Nearby

Air Quality

  Air Quality AQ Index Pollutant
Not available.

Snow Depth

Station Depth Elevation

Earthquake Activity

City Distance Mag. Time & Date
Minimum magnitude displayed is 2.5.

Coastal Water Temperatures

Place Temperature

Stations

Nearby Weather Stations

Station Location Temp. Windchill Dew Point Humidity Wind Precip. Elev Updated Type
                   

Watches & Warnings

There are currently no watches in effect.